sensor_id;sensor_type;location;lat;lon;timestamp;temperature;humidity
10788;DHT22;5446;50.826;4.380;2022-10-17T00:01:05;14.80;99.90
10788;DHT22;5446;50.826;4.380;2022-10-17T00:03:31;14.80;99.90
10788;DHT22;5446;50.826;4.380;2022-10-17T00:05:57;14.90;99.90
10788;DHT22;5446;50.826;4.380;2022-10-17T00:08:23;14.90;99.90
10788;DHT22;5446;50.826;4.380;2022-10-17T00:11:00;14.90;99.90
10788;DHT22;5446;50.826;4.380;2022-10-17T00:13:26;14.90;99.90
10788;DHT22;5446;50.826;4.380;2022-10-17T00:15:53;15.00;99.90
10788;DHT22;5446;50.826;4.380;2022-10-17T00:18:19;15.00;99.90
10788;DHT22;5446;50.826;4.380;2022-10-17T00:20:44;15.10;99.90
10788;DHT22;5446;50.826;4.380;2022-10-17T00:23:10;15.10;99.90
10788;DHT22;5446;50.826;4.380;2022-10-17T00:25:36;15.10;99.90
10788;DHT22;5446;50.826;4.380;2022-10-17T00:28:02;15.20;99.90
10788;DHT22;5446;50.826;4.380;2022-10-17T00:30:27;15.40;99.90
10788;DHT22;5446;50.826;4.380;2022-10-17T00:32:53;15.40;99.90
10788;DHT22;5446;50.826;4.380;2022-10-17T00:35:19;15.40;99.90
10788;DHT22;5446;50.826;4.380;2022-10-17T00:37:45;15.50;99.90
10788;DHT22;5446;50.826;4.380;2022-10-17T00:40:11;15.50;99.90
10788;DHT22;5446;50.826;4.380;2022-10-17T00:42:36;15.60;99.90
10788;DHT22;5446;50.826;4.380;2022-10-17T00:47:39;15.70;99.90
10788;DHT22;5446;50.826;4.380;2022-10-17T00:50:07;15.70;99.90
10788;DHT22;5446;50.826;4.380;2022-10-17T00:52:34;15.80;99.90
10788;DHT22;5446;50.826;4.380;2022-10-17T00:55:24;15.90;99.90
10788;DHT22;5446;50.826;4.380;2022-10-17T00:57:54;16.00;99.90
10788;DHT22;5446;50.826;4.380;2022-10-17T01:00:20;16.00;99.90
10788;DHT22;5446;50.826;4.380;2022-10-17T01:02:46;16.00;99.90
10788;DHT22;5446;50.826;4.380;2022-10-17T01:05:13;15.90;99.90
10788;DHT22;5446;50.826;4.380;2022-10-17T01:07:40;16.00;99.90
10788;DHT22;5446;50.826;4.380;2022-10-17T01:10:07;16.00;99.90
10788;DHT22;5446;50.826;4.380;2022-10-17T01:16:12;15.90;99.90
10788;DHT22;5446;50.826;4.380;2022-10-17T01:34:03;16.00;99.90
10788;DHT22;5446;50.826;4.380;2022-10-17T01:36:54;15.90;99.90
10788;DHT22;5446;50.826;4.380;2022-10-17T01:42:27;16.10;99.90
10788;DHT22;5446;50.826;4.380;2022-10-17T01:47:31;16.10;99.90
10788;DHT22;5446;50.826;4.380;2022-10-17T01:50:15;16.10;99.90
10788;DHT22;5446;50.826;4.380;2022-10-17T01:52:55;16.20;99.90
10788;DHT22;5446;50.826;4.380;2022-10-17T01:55:30;16.20;99.90
10788;DHT22;5446;50.826;4.380;2022-10-17T01:58:02;16.20;99.90
10788;DHT22;5446;50.826;4.380;2022-10-17T02:00:30;16.20;99.90
10788;DHT22;5446;50.826;4.380;2022-10-17T02:03:02;16.30;99.90
10788;DHT22;5446;50.826;4.380;2022-10-17T02:05:34;16.30;99.90
10788;DHT22;5446;50.826;4.380;2022-10-17T02:08:01;16.30;99.90
10788;DHT22;5446;50.826;4.380;2022-10-17T02:29:46;16.50;99.90
10788;DHT22;5446;50.826;4.380;2022-10-17T02:32:20;16.50;99.90
10788;DHT22;5446;50.826;4.380;2022-10-17T02:34:51;16.40;99.90
10788;DHT22;5446;50.826;4.380;2022-10-17T02:37:22;16.40;99.90
10788;DHT22;5446;50.826;4.380;2022-10-17T02:39:50;16.40;99.90
10788;DHT22;5446;50.826;4.380;2022-10-17T02:42:16;16.40;99.90
10788;DHT22;5446;50.826;4.380;2022-10-17T02:44:43;16.40;99.90
10788;DHT22;5446;50.826;4.380;2022-10-17T02:49:56;16.40;99.90
10788;DHT22;5446;50.826;4.380;2022-10-17T02:55:20;16.40;99.90
10788;DHT22;5446;50.826;4.380;2022-10-17T02:57:53;16.50;99.90
10788;DHT22;5446;50.826;4.380;2022-10-17T03:00:21;16.60;99.90
10788;DHT22;5446;50.826;4.380;2022-10-17T03:02:49;16.60;99.90
10788;DHT22;5446;50.826;4.380;2022-10-17T03:05:24;16.60;99.90
10788;DHT22;5446;50.826;4.380;2022-10-17T03:07:51;16.70;99.90
10788;DHT22;5446;50.826;4.380;2022-10-17T03:10:17;16.80;99.90
10788;DHT22;5446;50.826;4.380;2022-10-17T03:12:43;16.80;99.90
10788;DHT22;5446;50.826;4.380;2022-10-17T03:15:09;16.90;99.90
10788;DHT22;5446;50.826;4.380;2022-10-17T03:17:35;16.90;99.90
10788;DHT22;5446;50.826;4.380;2022-10-17T03:20:02;16.90;99.90
10788;DHT22;5446;50.826;4.380;2022-10-17T03:22:28;16.90;99.90
10788;DHT22;5446;50.826;4.380;2022-10-17T03:24:53;16.90;99.90
10788;DHT22;5446;50.826;4.380;2022-10-17T03:27:19;16.80;99.90
10788;DHT22;5446;50.826;4.380;2022-10-17T03:29:45;16.80;99.90
10788;DHT22;5446;50.826;4.380;2022-10-17T03:32:10;16.80;99.90
10788;DHT22;5446;50.826;4.380;2022-10-17T03:34:36;16.80;99.90
10788;DHT22;5446;50.826;4.380;2022-10-17T03:37:02;16.70;99.90
10788;DHT22;5446;50.826;4.380;2022-10-17T03:39:27;16.80;99.90
10788;DHT22;5446;50.826;4.380;2022-10-17T03:41:53;16.90;99.90
10788;DHT22;5446;50.826;4.380;2022-10-17T03:44:18;16.90;99.90
10788;DHT22;5446;50.826;4.380;2022-10-17T03:46:44;16.90;99.90
10788;DHT22;5446;50.826;4.380;2022-10-17T03:49:10;16.90;99.90
10788;DHT22;5446;50.826;4.380;2022-10-17T03:51:36;16.90;99.90
10788;DHT22;5446;50.826;4.380;2022-10-17T03:54:02;16.90;99.90
10788;DHT22;5446;50.826;4.380;2022-10-17T03:56:27;16.80;99.90
10788;DHT22;5446;50.826;4.380;2022-10-17T03:58:54;16.80;99.90
10788;DHT22;5446;50.826;4.380;2022-10-17T04:01:20;16.90;99.90
10788;DHT22;5446;50.826;4.380;2022-10-17T04:03:51;16.90;99.90
10788;DHT22;5446;50.826;4.380;2022-10-17T04:06:18;16.90;99.90
10788;DHT22;5446;50.826;4.380;2022-10-17T04:08:44;16.80;99.90
10788;DHT22;5446;50.826;4.380;2022-10-17T04:11:13;16.80;99.90
10788;DHT22;5446;50.826;4.380;2022-10-17T04:13:39;16.70;99.90
10788;DHT22;5446;50.826;4.380;2022-10-17T04:16:07;16.70;99.90
10788;DHT22;5446;50.826;4.380;2022-10-17T04:18:34;16.70;99.90
10788;DHT22;5446;50.826;4.380;2022-10-17T04:21:02;16.70;99.90
10788;DHT22;5446;50.826;4.380;2022-10-17T04:23:28;16.70;99.90
10788;DHT22;5446;50.826;4.380;2022-10-17T04:26:00;16.70;99.90
10788;DHT22;5446;50.826;4.380;2022-10-17T04:28:27;16.60;99.90
10788;DHT22;5446;50.826;4.380;2022-10-17T04:31:04;16.60;99.90
10788;DHT22;5446;50.826;4.380;2022-10-17T04:33:31;16.60;99.90
10788;DHT22;5446;50.826;4.380;2022-10-17T04:35:58;16.60;99.90
10788;DHT22;5446;50.826;4.380;2022-10-17T04:38:24;16.50;99.90
10788;DHT22;5446;50.826;4.380;2022-10-17T04:40:50;16.50;99.90
10788;DHT22;5446;50.826;4.380;2022-10-17T04:43:16;16.60;99.90
10788;DHT22;5446;50.826;4.380;2022-10-17T04:45:41;16.60;99.90
10788;DHT22;5446;50.826;4.380;2022-10-17T04:48:07;16.60;99.90
10788;DHT22;5446;50.826;4.380;2022-10-17T04:50:33;16.50;99.90
10788;DHT22;5446;50.826;4.380;2022-10-17T04:52:58;16.60;99.90
10788;DHT22;5446;50.826;4.380;2022-10-17T04:55:24;16.50;99.90
10788;DHT22;5446;50.826;4.380;2022-10-17T04:57:49;16.60;99.90
10788;DHT22;5446;50.826;4.380;2022-10-17T05:00:15;16.60;99.90
10788;DHT22;5446;50.826;4.380;2022-10-17T05:02:41;16.50;99.90
10788;DHT22;5446;50.826;4.380;2022-10-17T05:05:07;16.50;99.90
10788;DHT22;5446;50.826;4.380;2022-10-17T05:07:32;16.50;99.90
10788;DHT22;5446;50.826;4.380;2022-10-17T05:09:58;16.40;99.90
10788;DHT22;5446;50.826;4.380;2022-10-17T05:12:24;16.40;99.90
10788;DHT22;5446;50.826;4.380;2022-10-17T05:14:50;16.40;99.90
10788;DHT22;5446;50.826;4.380;2022-10-17T05:17:15;16.40;99.90
10788;DHT22;5446;50.826;4.380;2022-10-17T05:19:41;16.40;99.90
10788;DHT22;5446;50.826;4.380;2022-10-17T05:22:07;16.40;99.90
10788;DHT22;5446;50.826;4.380;2022-10-17T05:24:33;16.40;99.90
10788;DHT22;5446;50.826;4.380;2022-10-17T05:26:58;16.50;99.90
10788;DHT22;5446;50.826;4.380;2022-10-17T05:29:24;16.50;99.90
10788;DHT22;5446;50.826;4.380;2022-10-17T05:31:50;16.50;99.90
10788;DHT22;5446;50.826;4.380;2022-10-17T05:34:16;16.60;99.90
10788;DHT22;5446;50.826;4.380;2022-10-17T05:36:41;16.70;99.90
10788;DHT22;5446;50.826;4.380;2022-10-17T05:39:07;16.60;99.90
10788;DHT22;5446;50.826;4.380;2022-10-17T05:41:33;16.70;99.90
10788;DHT22;5446;50.826;4.380;2022-10-17T05:43:59;16.80;99.90
10788;DHT22;5446;50.826;4.380;2022-10-17T05:46:25;16.80;99.90
10788;DHT22;5446;50.826;4.380;2022-10-17T05:48:51;16.90;99.90
10788;DHT22;5446;50.826;4.380;2022-10-17T05:51:17;16.90;99.90
10788;DHT22;5446;50.826;4.380;2022-10-17T05:53:42;16.90;99.90
10788;DHT22;5446;50.826;4.380;2022-10-17T05:56:11;16.90;99.90
10788;DHT22;5446;50.826;4.380;2022-10-17T05:58:41;16.90;99.90
10788;DHT22;5446;50.826;4.380;2022-10-17T06:01:09;16.90;99.90
10788;DHT22;5446;50.826;4.380;2022-10-17T06:03:35;16.90;99.90
10788;DHT22;5446;50.826;4.380;2022-10-17T06:06:09;17.00;99.90
10788;DHT22;5446;50.826;4.380;2022-10-17T06:08:35;16.90;99.90
10788;DHT22;5446;50.826;4.380;2022-10-17T06:11:01;16.90;99.90
10788;DHT22;5446;50.826;4.380;2022-10-17T06:13:26;16.90;99.90
10788;DHT22;5446;50.826;4.380;2022-10-17T06:15:52;16.90;99.90
10788;DHT22;5446;50.826;4.380;2022-10-17T06:18:18;16.90;99.90
10788;DHT22;5446;50.826;4.380;2022-10-17T06:20:43;16.90;99.90
10788;DHT22;5446;50.826;4.380;2022-10-17T06:23:09;17.00;99.90
10788;DHT22;5446;50.826;4.380;2022-10-17T06:25:35;17.00;99.90
10788;DHT22;5446;50.826;4.380;2022-10-17T06:28:00;17.10;99.90
10788;DHT22;5446;50.826;4.380;2022-10-17T06:30:26;17.10;99.90
10788;DHT22;5446;50.826;4.380;2022-10-17T06:32:52;17.00;99.90
10788;DHT22;5446;50.826;4.380;2022-10-17T06:35:19;17.10;99.90
10788;DHT22;5446;50.826;4.380;2022-10-17T06:37:45;17.10;99.90
10788;DHT22;5446;50.826;4.380;2022-10-17T06:40:11;17.20;99.90
10788;DHT22;5446;50.826;4.380;2022-10-17T06:42:38;17.30;99.90
10788;DHT22;5446;50.826;4.380;2022-10-17T06:45:04;17.40;99.90
10788;DHT22;5446;50.826;4.380;2022-10-17T06:47:30;17.40;99.90
10788;DHT22;5446;50.826;4.380;2022-10-17T06:49:55;17.40;99.90
10788;DHT22;5446;50.826;4.380;2022-10-17T06:52:21;17.40;99.90
10788;DHT22;5446;50.826;4.380;2022-10-17T06:54:47;17.40;99.90
10788;DHT22;5446;50.826;4.380;2022-10-17T06:57:12;17.50;99.90
10788;DHT22;5446;50.826;4.380;2022-10-17T06:59:38;17.60;99.90
10788;DHT22;5446;50.826;4.380;2022-10-17T07:02:04;17.60;99.90
10788;DHT22;5446;50.826;4.380;2022-10-17T07:04:30;17.60;99.90
10788;DHT22;5446;50.826;4.380;2022-10-17T07:06:56;17.60;99.90
10788;DHT22;5446;50.826;4.380;2022-10-17T07:09:22;17.70;99.90
10788;DHT22;5446;50.826;4.380;2022-10-17T07:11:48;17.80;99.90
10788;DHT22;5446;50.826;4.380;2022-10-17T07:14:14;17.80;99.90
10788;DHT22;5446;50.826;4.380;2022-10-17T07:16:40;17.80;99.90
10788;DHT22;5446;50.826;4.380;2022-10-17T07:19:05;17.70;99.90
10788;DHT22;5446;50.826;4.380;2022-10-17T07:21:31;17.80;99.90
10788;DHT22;5446;50.826;4.380;2022-10-17T07:23:57;17.80;99.90
10788;DHT22;5446;50.826;4.380;2022-10-17T07:26:23;17.80;99.90
10788;DHT22;5446;50.826;4.380;2022-10-17T07:28:51;17.70;99.90
10788;DHT22;5446;50.826;4.380;2022-10-17T07:31:18;17.70;99.90
10788;DHT22;5446;50.826;4.380;2022-10-17T07:33:45;17.60;99.90
10788;DHT22;5446;50.826;4.380;2022-10-17T07:36:11;17.50;99.90
10788;DHT22;5446;50.826;4.380;2022-10-17T07:38:37;17.40;99.90
10788;DHT22;5446;50.826;4.380;2022-10-17T07:41:05;17.30;99.90
10788;DHT22;5446;50.826;4.380;2022-10-17T07:43:31;17.30;99.90
10788;DHT22;5446;50.826;4.380;2022-10-17T07:45:59;17.30;99.90
10788;DHT22;5446;50.826;4.380;2022-10-17T07:48:24;17.20;99.90
10788;DHT22;5446;50.826;4.380;2022-10-17T07:50:50;17.20;99.90
10788;DHT22;5446;50.826;4.380;2022-10-17T07:53:17;17.10;99.90
10788;DHT22;5446;50.826;4.380;2022-10-17T07:55:43;17.10;99.90
10788;DHT22;5446;50.826;4.380;2022-10-17T07:58:13;17.10;99.90
10788;DHT22;5446;50.826;4.380;2022-10-17T08:00:38;17.00;99.90
10788;DHT22;5446;50.826;4.380;2022-10-17T08:03:05;17.00;99.90
10788;DHT22;5446;50.826;4.380;2022-10-17T08:05:31;17.00;99.90
10788;DHT22;5446;50.826;4.380;2022-10-17T08:07:57;17.00;99.90
10788;DHT22;5446;50.826;4.380;2022-10-17T08:10:23;17.00;99.90
10788;DHT22;5446;50.826;4.380;2022-10-17T08:12:54;17.00;99.90
10788;DHT22;5446;50.826;4.380;2022-10-17T08:15:20;17.00;99.90
10788;DHT22;5446;50.826;4.380;2022-10-17T08:17:46;16.90;99.90
10788;DHT22;5446;50.826;4.380;2022-10-17T08:20:12;16.90;99.90
10788;DHT22;5446;50.826;4.380;2022-10-17T08:22:37;16.90;99.90
10788;DHT22;5446;50.826;4.380;2022-10-17T08:25:04;16.90;99.90
10788;DHT22;5446;50.826;4.380;2022-10-17T08:27:32;16.90;99.90
10788;DHT22;5446;50.826;4.380;2022-10-17T08:29:58;16.80;99.90
10788;DHT22;5446;50.826;4.380;2022-10-17T08:32:25;16.80;99.90
10788;DHT22;5446;50.826;4.380;2022-10-17T08:34:55;16.80;99.90
10788;DHT22;5446;50.826;4.380;2022-10-17T08:37:21;16.80;99.90
10788;DHT22;5446;50.826;4.380;2022-10-17T08:39:48;16.90;99.90
10788;DHT22;5446;50.826;4.380;2022-10-17T08:42:36;17.00;99.90
10788;DHT22;5446;50.826;4.380;2022-10-17T08:47:56;17.10;99.90
10788;DHT22;5446;50.826;4.380;2022-10-17T08:53:09;17.10;99.90
10788;DHT22;5446;50.826;4.380;2022-10-17T08:55:59;17.10;99.90
10788;DHT22;5446;50.826;4.380;2022-10-17T08:58:29;17.10;99.90
10788;DHT22;5446;50.826;4.380;2022-10-17T09:06:48;17.10;99.90
10788;DHT22;5446;50.826;4.380;2022-10-17T09:20:18;17.10;99.90
10788;DHT22;5446;50.826;4.380;2022-10-17T09:23:05;17.10;99.90
10788;DHT22;5446;50.826;4.380;2022-10-17T09:25:41;17.10;99.90
10788;DHT22;5446;50.826;4.380;2022-10-17T09:31:05;17.20;99.90
10788;DHT22;5446;50.826;4.380;2022-10-17T09:33:43;17.10;99.90
10788;DHT22;5446;50.826;4.380;2022-10-17T09:36:19;17.20;99.90
10788;DHT22;5446;50.826;4.380;2022-10-17T09:38:48;17.20;99.90
10788;DHT22;5446;50.826;4.380;2022-10-17T09:41:48;17.20;99.90
10788;DHT22;5446;50.826;4.380;2022-10-17T09:46:55;17.20;99.90
10788;DHT22;5446;50.826;4.380;2022-10-17T09:49:53;17.30;99.90
10788;DHT22;5446;50.826;4.380;2022-10-17T09:52:29;17.30;99.90
10788;DHT22;5446;50.826;4.380;2022-10-17T09:55:03;17.30;99.90
10788;DHT22;5446;50.826;4.380;2022-10-17T09:58:10;17.30;99.90
10788;DHT22;5446;50.826;4.380;2022-10-17T10:00:42;17.30;99.90
10788;DHT22;5446;50.826;4.380;2022-10-17T10:03:18;17.30;99.90
10788;DHT22;5446;50.826;4.380;2022-10-17T10:06:06;17.30;99.90
10788;DHT22;5446;50.826;4.380;2022-10-17T10:08:36;17.20;99.90
10788;DHT22;5446;50.826;4.380;2022-10-17T10:11:13;17.20;99.90
10788;DHT22;5446;50.826;4.380;2022-10-17T10:13:39;17.20;99.90
10788;DHT22;5446;50.826;4.380;2022-10-17T10:16:47;17.20;99.90
10788;DHT22;5446;50.826;4.380;2022-10-17T10:19:32;17.30;99.90
10788;DHT22;5446;50.826;4.380;2022-10-17T10:22:12;17.20;99.90
10788;DHT22;5446;50.826;4.380;2022-10-17T10:24:39;17.20;99.90
10788;DHT22;5446;50.826;4.380;2022-10-17T10:27:05;17.30;99.90
10788;DHT22;5446;50.826;4.380;2022-10-17T10:29:48;17.40;99.90
10788;DHT22;5446;50.826;4.380;2022-10-17T10:32:26;17.50;99.90
10788;DHT22;5446;50.826;4.380;2022-10-17T10:37:37;17.60;99.90
10788;DHT22;5446;50.826;4.380;2022-10-17T10:40:16;17.60;99.90
10788;DHT22;5446;50.826;4.380;2022-10-17T10:42:47;17.70;99.90
10788;DHT22;5446;50.826;4.380;2022-10-17T10:45:21;17.70;99.90
10788;DHT22;5446;50.826;4.380;2022-10-17T10:47:58;17.70;99.90
10788;DHT22;5446;50.826;4.380;2022-10-17T10:53:08;17.70;99.90
10788;DHT22;5446;50.826;4.380;2022-10-17T10:55:44;17.70;99.90
10788;DHT22;5446;50.826;4.380;2022-10-17T11:01:06;17.70;99.90
10788;DHT22;5446;50.826;4.380;2022-10-17T11:06:43;17.80;99.90
10788;DHT22;5446;50.826;4.380;2022-10-17T11:11:44;17.80;99.90
10788;DHT22;5446;50.826;4.380;2022-10-17T11:14:19;17.80;99.90
10788;DHT22;5446;50.826;4.380;2022-10-17T11:17:15;17.80;99.90
10788;DHT22;5446;50.826;4.380;2022-10-17T11:20:02;17.80;99.90
10788;DHT22;5446;50.826;4.380;2022-10-17T11:22:42;17.80;99.90
10788;DHT22;5446;50.826;4.380;2022-10-17T11:27:49;17.80;99.90
10788;DHT22;5446;50.826;4.380;2022-10-17T11:30:16;17.80;99.90
10788;DHT22;5446;50.826;4.380;2022-10-17T11:32:52;17.80;99.90
10788;DHT22;5446;50.826;4.380;2022-10-17T11:35:36;17.80;99.90
10788;DHT22;5446;50.826;4.380;2022-10-17T11:40:45;17.70;99.90
10788;DHT22;5446;50.826;4.380;2022-10-17T11:45:43;17.80;99.90
10788;DHT22;5446;50.826;4.380;2022-10-17T11:48:23;17.80;99.90
10788;DHT22;5446;50.826;4.380;2022-10-17T11:51:08;17.90;99.90
10788;DHT22;5446;50.826;4.380;2022-10-17T11:53:50;18.00;99.90
10788;DHT22;5446;50.826;4.380;2022-10-17T11:56:44;18.00;99.90
10788;DHT22;5446;50.826;4.380;2022-10-17T12:01:56;18.10;99.90
10788;DHT22;5446;50.826;4.380;2022-10-17T12:07:26;18.10;99.90
10788;DHT22;5446;50.826;4.380;2022-10-17T12:10:21;18.10;99.90
10788;DHT22;5446;50.826;4.380;2022-10-17T12:12:48;18.20;99.90
10788;DHT22;5446;50.826;4.380;2022-10-17T12:20:31;18.40;99.90
10788;DHT22;5446;50.826;4.380;2022-10-17T12:25:46;18.40;99.90
10788;DHT22;5446;50.826;4.380;2022-10-17T12:31:01;18.30;99.90
10788;DHT22;5446;50.826;4.380;2022-10-17T12:33:47;18.30;99.90
10788;DHT22;5446;50.826;4.380;2022-10-17T12:38:42;18.20;99.90
10788;DHT22;5446;50.826;4.380;2022-10-17T12:41:08;18.10;99.90
10788;DHT22;5446;50.826;4.380;2022-10-17T12:43:44;18.10;99.90
10788;DHT22;5446;50.826;4.380;2022-10-17T12:46:10;18.10;99.90
10788;DHT22;5446;50.826;4.380;2022-10-17T12:51:14;18.20;99.90
10788;DHT22;5446;50.826;4.380;2022-10-17T12:56:47;18.20;99.90
10788;DHT22;5446;50.826;4.380;2022-10-17T12:59:23;18.30;99.90
10788;DHT22;5446;50.826;4.380;2022-10-17T13:01:57;18.30;99.90
10788;DHT22;5446;50.826;4.380;2022-10-17T13:04:24;18.30;99.90
10788;DHT22;5446;50.826;4.380;2022-10-17T13:06:53;18.40;99.90
10788;DHT22;5446;50.826;4.380;2022-10-17T13:09:35;18.40;99.90
10788;DHT22;5446;50.826;4.380;2022-10-17T13:12:04;18.40;99.90
10788;DHT22;5446;50.826;4.380;2022-10-17T13:14:32;18.50;99.90
10788;DHT22;5446;50.826;4.380;2022-10-17T13:17:04;18.40;99.90
10788;DHT22;5446;50.826;4.380;2022-10-17T13:19:42;18.50;99.90
10788;DHT22;5446;50.826;4.380;2022-10-17T13:22:29;18.60;99.90
10788;DHT22;5446;50.826;4.380;2022-10-17T13:25:15;18.60;99.90
10788;DHT22;5446;50.826;4.380;2022-10-17T13:27:41;18.60;99.90
10788;DHT22;5446;50.826;4.380;2022-10-17T13:30:32;18.60;99.90
10788;DHT22;5446;50.826;4.380;2022-10-17T13:32:59;18.60;99.90
10788;DHT22;5446;50.826;4.380;2022-10-17T13:35:35;18.60;99.90
10788;DHT22;5446;50.826;4.380;2022-10-17T13:38:05;18.60;99.90
10788;DHT22;5446;50.826;4.380;2022-10-17T13:40:39;18.60;99.90
10788;DHT22;5446;50.826;4.380;2022-10-17T13:43:14;18.60;99.90
10788;DHT22;5446;50.826;4.380;2022-10-17T13:45:48;18.60;99.90
10788;DHT22;5446;50.826;4.380;2022-10-17T13:48:26;18.60;99.90
10788;DHT22;5446;50.826;4.380;2022-10-17T13:50:55;18.60;99.90
10788;DHT22;5446;50.826;4.380;2022-10-17T13:53:35;18.60;99.90
10788;DHT22;5446;50.826;4.380;2022-10-17T13:56:21;18.60;99.90
10788;DHT22;5446;50.826;4.380;2022-10-17T13:58:54;18.60;99.90
10788;DHT22;5446;50.826;4.380;2022-10-17T14:01:23;18.50;99.90
10788;DHT22;5446;50.826;4.380;2022-10-17T14:03:50;18.60;99.90
10788;DHT22;5446;50.826;4.380;2022-10-17T14:06:26;18.50;99.90
10788;DHT22;5446;50.826;4.380;2022-10-17T14:08:59;18.40;99.90
10788;DHT22;5446;50.826;4.380;2022-10-17T14:11:55;18.50;99.90
10788;DHT22;5446;50.826;4.380;2022-10-17T14:14:23;18.50;99.90
10788;DHT22;5446;50.826;4.380;2022-10-17T14:16:51;18.50;99.90
10788;DHT22;5446;50.826;4.380;2022-10-17T14:19:32;18.50;99.90
10788;DHT22;5446;50.826;4.380;2022-10-17T14:22:27;18.50;99.90
10788;DHT22;5446;50.826;4.380;2022-10-17T14:24:53;18.60;99.90
10788;DHT22;5446;50.826;4.380;2022-10-17T14:27:35;18.60;99.90
10788;DHT22;5446;50.826;4.380;2022-10-17T14:33:06;18.60;99.90
10788;DHT22;5446;50.826;4.380;2022-10-17T14:35:32;18.60;99.90
10788;DHT22;5446;50.826;4.380;2022-10-17T14:38:01;18.60;99.90
10788;DHT22;5446;50.826;4.380;2022-10-17T14:40:28;18.60;99.90
10788;DHT22;5446;50.826;4.380;2022-10-17T14:42:56;18.60;99.90
10788;DHT22;5446;50.826;4.380;2022-10-17T14:45:27;18.60;99.90
10788;DHT22;5446;50.826;4.380;2022-10-17T14:47:56;18.60;99.90
10788;DHT22;5446;50.826;4.380;2022-10-17T14:50:27;18.60;99.90
10788;DHT22;5446;50.826;4.380;2022-10-17T14:55:29;18.60;99.90
10788;DHT22;5446;50.826;4.380;2022-10-17T14:57:55;18.60;99.90
10788;DHT22;5446;50.826;4.380;2022-10-17T15:00:21;18.60;99.90
10788;DHT22;5446;50.826;4.380;2022-10-17T15:02:48;18.60;99.90
10788;DHT22;5446;50.826;4.380;2022-10-17T15:05:15;18.50;99.90
10788;DHT22;5446;50.826;4.380;2022-10-17T15:07:41;18.50;99.90
10788;DHT22;5446;50.826;4.380;2022-10-17T15:12:50;18.50;99.90
10788;DHT22;5446;50.826;4.380;2022-10-17T15:15:16;18.50;99.90
10788;DHT22;5446;50.826;4.380;2022-10-17T15:17:42;18.40;99.90
10788;DHT22;5446;50.826;4.380;2022-10-17T15:20:15;18.50;99.90
10788;DHT22;5446;50.826;4.380;2022-10-17T15:22:41;18.50;99.90
10788;DHT22;5446;50.826;4.380;2022-10-17T15:25:07;18.50;99.90
10788;DHT22;5446;50.826;4.380;2022-10-17T15:27:33;18.50;99.90
10788;DHT22;5446;50.826;4.380;2022-10-17T15:29:59;18.50;99.90
10788;DHT22;5446;50.826;4.380;2022-10-17T15:32:24;18.40;99.90
10788;DHT22;5446;50.826;4.380;2022-10-17T15:34:50;18.40;99.90
10788;DHT22;5446;50.826;4.380;2022-10-17T15:37:23;18.40;99.90
10788;DHT22;5446;50.826;4.380;2022-10-17T15:39:52;18.40;99.90
10788;DHT22;5446;50.826;4.380;2022-10-17T15:42:25;18.30;99.90
10788;DHT22;5446;50.826;4.380;2022-10-17T15:44:51;18.20;99.90
10788;DHT22;5446;50.826;4.380;2022-10-17T15:47:31;18.20;99.90
10788;DHT22;5446;50.826;4.380;2022-10-17T15:50:00;18.20;99.90
10788;DHT22;5446;50.826;4.380;2022-10-17T15:52:27;18.20;99.90
10788;DHT22;5446;50.826;4.380;2022-10-17T15:54:53;18.10;99.90
10788;DHT22;5446;50.826;4.380;2022-10-17T15:57:22;18.10;99.90
10788;DHT22;5446;50.826;4.380;2022-10-17T15:59:49;18.10;99.90
10788;DHT22;5446;50.826;4.380;2022-10-17T16:02:16;18.00;99.90
10788;DHT22;5446;50.826;4.380;2022-10-17T16:04:42;18.00;99.90
10788;DHT22;5446;50.826;4.380;2022-10-17T16:07:08;18.00;99.90
10788;DHT22;5446;50.826;4.380;2022-10-17T16:09:35;17.90;99.90
10788;DHT22;5446;50.826;4.380;2022-10-17T16:12:06;17.90;99.90
10788;DHT22;5446;50.826;4.380;2022-10-17T16:14:35;17.90;99.90
10788;DHT22;5446;50.826;4.380;2022-10-17T16:17:00;17.80;99.90
10788;DHT22;5446;50.826;4.380;2022-10-17T16:19:26;17.70;99.90
10788;DHT22;5446;50.826;4.380;2022-10-17T16:21:57;17.70;99.90
10788;DHT22;5446;50.826;4.380;2022-10-17T16:24:25;17.70;99.90
10788;DHT22;5446;50.826;4.380;2022-10-17T16:26:51;17.70;99.90
10788;DHT22;5446;50.826;4.380;2022-10-17T16:29:17;17.60;99.90
10788;DHT22;5446;50.826;4.380;2022-10-17T16:31:44;17.60;99.90
10788;DHT22;5446;50.826;4.380;2022-10-17T16:34:11;17.50;99.90
10788;DHT22;5446;50.826;4.380;2022-10-17T16:36:38;17.50;99.90
10788;DHT22;5446;50.826;4.380;2022-10-17T16:39:04;17.50;99.90
10788;DHT22;5446;50.826;4.380;2022-10-17T16:41:33;17.40;99.90
10788;DHT22;5446;50.826;4.380;2022-10-17T16:44:02;17.40;99.90
10788;DHT22;5446;50.826;4.380;2022-10-17T16:46:29;17.30;99.90
10788;DHT22;5446;50.826;4.380;2022-10-17T16:48:56;17.30;99.90
10788;DHT22;5446;50.826;4.380;2022-10-17T16:51:22;17.20;99.90
10788;DHT22;5446;50.826;4.380;2022-10-17T16:53:50;17.20;99.90
10788;DHT22;5446;50.826;4.380;2022-10-17T16:56:19;17.20;99.90
10788;DHT22;5446;50.826;4.380;2022-10-17T16:58:45;17.10;99.90
10788;DHT22;5446;50.826;4.380;2022-10-17T17:01:16;17.10;99.90
10788;DHT22;5446;50.826;4.380;2022-10-17T17:03:44;17.10;99.90
10788;DHT22;5446;50.826;4.380;2022-10-17T17:06:15;17.10;99.90
10788;DHT22;5446;50.826;4.380;2022-10-17T17:08:42;17.10;99.90
10788;DHT22;5446;50.826;4.380;2022-10-17T17:11:09;17.10;99.90
10788;DHT22;5446;50.826;4.380;2022-10-17T17:13:36;17.10;99.90
10788;DHT22;5446;50.826;4.380;2022-10-17T17:18:39;17.10;99.90
10788;DHT22;5446;50.826;4.380;2022-10-17T17:21:07;17.10;99.90
10788;DHT22;5446;50.826;4.380;2022-10-17T17:23:35;17.00;99.90
10788;DHT22;5446;50.826;4.380;2022-10-17T17:26:14;17.00;99.90
10788;DHT22;5446;50.826;4.380;2022-10-17T17:28:40;17.00;99.90
10788;DHT22;5446;50.826;4.380;2022-10-17T17:31:10;17.00;99.90
10788;DHT22;5446;50.826;4.380;2022-10-17T17:33:37;17.00;99.90
10788;DHT22;5446;50.826;4.380;2022-10-17T17:36:04;17.00;99.90
10788;DHT22;5446;50.826;4.380;2022-10-17T17:38:32;17.00;99.90
10788;DHT22;5446;50.826;4.380;2022-10-17T17:40:58;17.00;99.90
10788;DHT22;5446;50.826;4.380;2022-10-17T17:43:24;17.00;99.90
10788;DHT22;5446;50.826;4.380;2022-10-17T17:45:50;16.90;99.90
10788;DHT22;5446;50.826;4.380;2022-10-17T17:48:16;16.90;99.90
10788;DHT22;5446;50.826;4.380;2022-10-17T17:50:43;16.90;99.90
10788;DHT22;5446;50.826;4.380;2022-10-17T17:53:10;16.90;99.90
10788;DHT22;5446;50.826;4.380;2022-10-17T17:55:36;16.80;99.90
10788;DHT22;5446;50.826;4.380;2022-10-17T17:58:02;16.80;99.90
10788;DHT22;5446;50.826;4.380;2022-10-17T18:00:28;16.80;99.90
10788;DHT22;5446;50.826;4.380;2022-10-17T18:02:55;16.80;99.90
10788;DHT22;5446;50.826;4.380;2022-10-17T18:05:20;16.80;99.90
10788;DHT22;5446;50.826;4.380;2022-10-17T18:07:46;16.70;99.90
10788;DHT22;5446;50.826;4.380;2022-10-17T18:10:13;16.80;99.90
10788;DHT22;5446;50.826;4.380;2022-10-17T18:12:40;16.80;99.90
10788;DHT22;5446;50.826;4.380;2022-10-17T18:15:06;16.80;99.90
10788;DHT22;5446;50.826;4.380;2022-10-17T18:17:32;16.80;99.90